createdAt,value
2018-11-05T00:01:57.437Z,22.67
2018-11-05T00:04:26.029Z,18.73
2018-11-05T00:06:54.485Z,17.60
2018-11-05T00:09:23.095Z,17.20
2018-11-05T00:11:51.666Z,21.50
2018-11-05T00:14:20.347Z,28.07
2018-11-05T00:16:48.793Z,19.00
2018-11-05T00:19:17.796Z,20.40
2018-11-05T00:21:46.724Z,23.07
2018-11-05T00:24:15.381Z,22.07
2018-11-05T00:26:44.405Z,17.30
2018-11-05T00:29:13.182Z,23.53
2018-11-05T00:31:41.870Z,19.20
2018-11-05T00:34:10.818Z,17.43
2018-11-05T00:36:39.588Z,22.33
2018-11-05T00:39:10.211Z,20.60
2018-11-05T00:41:39.065Z,21.67
2018-11-05T00:44:07.942Z,21.77
2018-11-05T00:46:36.510Z,25.73
2018-11-05T00:49:06.111Z,22.97
2018-11-05T00:51:35.006Z,26.47
2018-11-05T00:54:03.730Z,21.47
2018-11-05T00:56:32.430Z,26.07
2018-11-05T00:59:01.085Z,20.63
2018-11-05T01:01:29.894Z,23.30
2018-11-05T01:03:58.365Z,20.60
2018-11-05T01:06:26.837Z,19.67
2018-11-05T01:08:55.353Z,24.23
2018-11-05T01:11:23.815Z,22.90
2018-11-05T01:13:52.355Z,27.37
2018-11-05T01:16:20.827Z,25.53
2018-11-05T01:18:49.287Z,19.20
2018-11-05T01:21:17.741Z,18.57
2018-11-05T01:23:46.216Z,19.87
2018-11-05T01:26:14.683Z,20.73
2018-11-05T01:28:43.142Z,21.17
2018-11-05T01:31:11.610Z,20.77
2018-11-05T01:33:40.045Z,21.83
2018-11-05T01:36:08.491Z,22.33
2018-11-05T01:38:36.939Z,21.50
2018-11-05T01:41:05.491Z,22.73
2018-11-05T01:43:33.958Z,24.30
2018-11-05T01:46:02.414Z,22.57
2018-11-05T01:48:30.915Z,20.37
2018-11-05T01:50:59.381Z,24.17
2018-11-05T01:53:27.868Z,22.03
2018-11-05T01:55:56.382Z,32.83
2018-11-05T01:58:24.919Z,21.70
2018-11-05T02:00:53.401Z,21.27
2018-11-05T02:03:21.895Z,31.70
2018-11-05T02:05:50.365Z,19.80
2018-11-05T02:08:18.889Z,21.07
2018-11-05T02:10:47.357Z,23.43
2018-11-05T02:13:15.901Z,21.47
2018-11-05T02:15:44.324Z,26.43
2018-11-05T02:18:12.810Z,20.07
2018-11-05T02:20:41.283Z,23.93
2018-11-05T02:23:09.794Z,22.30
2018-11-05T02:25:38.242Z,20.50
2018-11-05T02:28:06.929Z,37.50
2018-11-05T02:30:35.401Z,24.43
2018-11-05T02:33:03.866Z,22.13
2018-11-05T02:35:32.338Z,23.73
2018-11-05T02:38:00.847Z,21.90
2018-11-05T02:40:29.317Z,26.40
2018-11-05T02:42:57.816Z,24.17
2018-11-05T02:45:26.303Z,22.33
2018-11-05T02:47:54.766Z,22.97
2018-11-05T02:50:23.234Z,24.30
2018-11-05T02:52:51.721Z,26.97
2018-11-05T02:55:20.195Z,24.17
2018-11-05T02:57:48.666Z,22.97
2018-11-05T03:00:18.266Z,21.70
2018-11-05T03:02:46.813Z,24.00
2018-11-05T03:05:16.584Z,22.00
2018-11-05T03:07:45.765Z,23.20
2018-11-05T03:10:14.554Z,20.20
2018-11-05T03:12:43.630Z,23.67
2018-11-05T03:15:13.361Z,23.77
2018-11-05T03:17:41.866Z,26.60
2018-11-05T03:20:11.441Z,28.90
2018-11-05T03:22:40.642Z,28.27
2018-11-05T03:25:09.319Z,24.13
2018-11-05T03:27:38.140Z,24.00
2018-11-05T03:30:14.035Z,23.00
2018-11-05T03:32:42.716Z,20.90
2018-11-05T03:35:12.265Z,25.73
2018-11-05T03:37:41.755Z,26.57
2018-11-05T03:40:11.275Z,22.97
2018-11-05T03:42:40.285Z,21.83
2018-11-05T03:45:10.053Z,22.63
2018-11-05T03:47:38.875Z,21.33
2018-11-05T03:50:09.901Z,26.00
2018-11-05T03:52:38.382Z,22.57
2018-11-05T03:55:06.909Z,22.33
2018-11-05T03:57:35.430Z,24.90
2018-11-05T04:00:04.362Z,22.60
2018-11-05T04:02:32.945Z,23.10
2018-11-05T04:05:01.418Z,25.50
2018-11-05T04:07:29.922Z,28.37
2018-11-05T04:09:58.389Z,23.60
2018-11-05T04:12:26.855Z,23.30
2018-11-05T04:14:55.328Z,24.10
2018-11-05T04:17:23.790Z,20.17
2018-11-05T04:19:52.266Z,19.40
2018-11-05T04:22:20.730Z,21.30
2018-11-05T04:24:49.238Z,23.13
2018-11-05T04:27:17.686Z,21.10
2018-11-05T04:29:46.168Z,21.83
2018-11-05T04:32:14.617Z,26.07
2018-11-05T04:34:43.137Z,21.33
2018-11-05T04:37:11.573Z,23.20
2018-11-05T04:39:46.578Z,21.20
2018-11-05T04:42:15.053Z,19.93
2018-11-05T04:44:43.819Z,22.43
2018-11-05T04:47:12.281Z,21.50
2018-11-05T04:49:40.738Z,21.73
2018-11-05T04:52:09.187Z,19.83
2018-11-05T04:54:37.634Z,20.27
2018-11-05T04:57:06.115Z,26.00
2018-11-05T04:59:34.594Z,16.07
2018-11-05T05:02:03.051Z,22.30
2018-11-05T05:04:31.517Z,19.37
2018-11-05T05:06:59.962Z,19.90
2018-11-05T05:09:28.478Z,20.50
2018-11-05T05:11:57.879Z,22.33
2018-11-05T05:14:26.365Z,26.20
2018-11-05T05:16:54.845Z,29.30
2018-11-05T05:19:23.341Z,21.70
2018-11-05T05:21:51.825Z,24.97
2018-11-05T05:24:20.319Z,24.13
2018-11-05T05:26:48.815Z,22.90
2018-11-05T05:29:17.333Z,24.63
2018-11-05T05:31:45.853Z,23.17
2018-11-05T05:34:14.366Z,21.97
2018-11-05T05:36:42.903Z,25.10
2018-11-05T05:39:11.543Z,31.50
2018-11-05T05:41:40.503Z,27.33
2018-11-05T05:44:08.975Z,27.50
2018-11-05T05:46:37.617Z,29.50
2018-11-05T05:49:06.133Z,28.33
2018-11-05T05:51:34.678Z,30.57
2018-11-05T05:54:03.621Z,26.83
2018-11-05T05:56:32.174Z,25.63
2018-11-05T05:59:00.616Z,30.37
2018-11-05T06:01:29.090Z,27.07
2018-11-05T06:03:57.581Z,26.93
2018-11-05T06:06:26.062Z,32.63
2018-11-05T06:08:54.513Z,30.67
2018-11-05T06:11:22.989Z,30.33
2018-11-05T06:13:51.462Z,28.90
2018-11-05T06:16:19.956Z,26.70
2018-11-05T06:18:48.421Z,28.97
2018-11-05T06:21:16.905Z,30.23
2018-11-05T06:23:45.543Z,27.83
2018-11-05T06:26:14.013Z,30.43
2018-11-05T06:28:42.489Z,32.80
2018-11-05T06:31:10.908Z,27.40
2018-11-05T06:33:39.476Z,30.23
2018-11-05T06:36:07.983Z,32.93
2018-11-05T06:38:36.458Z,27.30
2018-11-05T06:41:05.705Z,27.17
2018-11-05T06:43:34.185Z,28.43
2018-11-05T06:46:02.622Z,26.83
2018-11-05T06:48:31.126Z,29.03
2018-11-05T06:50:59.611Z,30.97
2018-11-05T06:53:28.050Z,33.83
2018-11-05T06:55:56.533Z,28.53
2018-11-05T06:58:24.981Z,37.17
2018-11-05T07:00:53.445Z,31.90
2018-11-05T07:03:21.909Z,26.90
2018-11-05T07:05:50.482Z,32.63
2018-11-05T07:08:18.878Z,27.73
2018-11-05T07:10:47.334Z,27.40
2018-11-05T07:13:15.822Z,33.00
2018-11-05T07:15:44.286Z,28.50
2018-11-05T07:18:12.821Z,30.53
2018-11-05T07:20:41.258Z,31.53
2018-11-05T07:23:09.757Z,27.80
2018-11-05T07:25:38.229Z,27.77
2018-11-05T07:28:06.961Z,33.30
2018-11-05T07:30:35.440Z,28.80
2018-11-05T07:33:04.024Z,24.60
2018-11-05T07:35:32.562Z,28.23
2018-11-05T07:38:01.045Z,37.00
2018-11-05T07:40:29.536Z,24.40
2018-11-05T07:42:57.988Z,29.60
2018-11-05T07:45:26.473Z,32.50
2018-11-05T07:47:54.902Z,34.13
2018-11-05T07:50:23.525Z,33.43
2018-11-05T07:52:52.420Z,26.20
2018-11-05T07:55:21.295Z,28.63
2018-11-05T07:57:50.524Z,22.97
2018-11-05T08:00:24.251Z,26.37
2018-11-05T08:02:54.147Z,33.83
2018-11-05T08:05:23.322Z,31.67
2018-11-05T08:07:51.902Z,25.97
2018-11-05T08:10:20.422Z,29.40
2018-11-05T08:12:48.895Z,36.73
2018-11-05T08:15:19.602Z,31.17
2018-11-05T08:17:49.122Z,51.37
2018-11-05T08:20:17.611Z,33.93
2018-11-05T08:22:46.089Z,36.87
2018-11-05T08:25:15.350Z,36.83
2018-11-05T08:27:43.904Z,42.80
2018-11-05T08:30:17.990Z,27.47
2018-11-05T08:32:46.475Z,28.33
2018-11-05T08:35:15.198Z,30.60
2018-11-05T08:37:44.830Z,27.13
2018-11-05T08:40:15.748Z,31.83
2018-11-05T08:42:45.062Z,28.13
2018-11-05T08:45:20.785Z,31.40
2018-11-05T08:47:49.301Z,28.87
2018-11-05T08:50:19.015Z,34.57
2018-11-05T08:52:47.396Z,35.50
2018-11-05T08:55:20.360Z,32.87
2018-11-05T08:57:49.018Z,30.90
2018-11-05T09:00:23.481Z,34.30
2018-11-05T09:02:52.429Z,32.50
2018-11-05T09:05:21.265Z,29.20
2018-11-05T09:07:50.554Z,35.53
2018-11-05T09:10:19.093Z,26.50
2018-11-05T09:12:47.543Z,33.43
2018-11-05T09:15:17.310Z,34.63
2018-11-05T09:17:46.285Z,29.23
2018-11-05T09:20:16.017Z,36.40
2018-11-05T09:22:44.479Z,34.37
2018-11-05T09:25:13.826Z,34.73
2018-11-05T09:27:42.276Z,38.20
2018-11-05T09:30:13.325Z,35.40
2018-11-05T09:32:42.062Z,26.27
2018-11-05T09:35:10.593Z,32.73
2018-11-05T09:37:39.327Z,29.13
2018-11-05T09:40:09.877Z,44.27
2018-11-05T09:42:39.109Z,32.10
2018-11-05T09:45:11.939Z,36.00
2018-11-05T09:47:40.631Z,31.43
2018-11-05T09:50:09.846Z,31.77
2018-11-05T09:52:38.346Z,37.07
2018-11-05T09:55:07.429Z,38.37
2018-11-05T09:57:35.920Z,30.27
2018-11-05T10:00:04.775Z,30.17
2018-11-05T10:02:38.629Z,29.03
2018-11-05T10:05:07.305Z,30.10
2018-11-05T10:07:35.553Z,25.87
2018-11-05T10:10:04.575Z,28.90
2018-11-05T10:12:33.041Z,35.47
2018-11-05T10:15:01.491Z,30.77
2018-11-05T10:17:29.977Z,31.33
2018-11-05T10:19:58.427Z,25.53
2018-11-05T10:22:26.897Z,26.27
2018-11-05T10:24:55.783Z,47.80
2018-11-05T10:27:24.523Z,27.53
2018-11-05T10:29:52.993Z,33.80
2018-11-05T10:32:21.507Z,28.83
2018-11-05T10:34:49.996Z,28.07
2018-11-05T10:37:18.473Z,25.93
2018-11-05T10:39:46.951Z,23.53
2018-11-05T10:42:15.475Z,23.80
2018-11-05T10:44:43.938Z,23.83
2018-11-05T10:47:12.384Z,32.50
2018-11-05T10:49:40.850Z,28.60
2018-11-05T10:52:09.785Z,29.60
2018-11-05T10:54:38.133Z,29.90
2018-11-05T10:57:06.609Z,28.17
2018-11-05T10:59:35.058Z,28.83
2018-11-05T11:02:08.925Z,25.03
2018-11-05T11:04:37.419Z,28.93
2018-11-05T11:07:05.860Z,28.00
2018-11-05T11:09:34.387Z,31.43
2018-11-05T11:12:02.835Z,34.10
2018-11-05T11:14:31.315Z,29.93
2018-11-05T11:16:59.768Z,28.57
2018-11-05T11:19:28.306Z,28.53
2018-11-05T11:21:57.718Z,27.83
2018-11-05T11:24:26.133Z,31.50
2018-11-05T11:26:54.609Z,34.73
2018-11-05T11:29:23.231Z,32.37
2018-11-05T11:31:51.571Z,32.73
2018-11-05T11:34:20.044Z,37.97
2018-11-05T11:36:48.653Z,35.13
2018-11-05T11:39:17.011Z,29.33
2018-11-05T11:41:45.479Z,26.10
2018-11-05T11:44:14.209Z,21.83
2018-11-05T11:46:42.441Z,29.03
2018-11-05T11:49:10.999Z,24.73
2018-11-05T11:51:39.443Z,26.57
2018-11-05T11:54:07.920Z,20.60
2018-11-05T11:56:36.427Z,30.13
2018-11-05T11:59:05.016Z,26.60
2018-11-05T12:01:37.662Z,22.73
2018-11-05T12:04:06.113Z,29.03
2018-11-05T12:06:34.582Z,23.23
2018-11-05T12:09:03.300Z,31.60
2018-11-05T12:11:31.760Z,26.93
2018-11-05T12:14:00.246Z,21.80
2018-11-05T12:16:28.632Z,24.33
2018-11-05T12:18:57.090Z,23.60
2018-11-05T12:21:25.559Z,26.37
2018-11-05T12:26:28.792Z,30.03
2018-11-05T12:28:57.224Z,28.53
2018-11-05T12:31:25.677Z,21.93
2018-11-05T12:33:54.199Z,22.77
2018-11-05T12:36:22.668Z,24.03
2018-11-05T12:38:51.180Z,32.10
2018-11-05T12:41:19.633Z,27.17
2018-11-05T12:43:48.079Z,26.90
2018-11-05T12:46:16.562Z,25.80
2018-11-05T12:48:45.031Z,27.50
2018-11-05T12:51:13.486Z,24.43
2018-11-05T12:53:41.934Z,31.50
2018-11-05T12:56:10.366Z,20.20
2018-11-05T12:58:38.839Z,26.80
2018-11-05T13:01:07.330Z,28.00
2018-11-05T13:03:35.774Z,22.77
2018-11-05T13:06:04.479Z,25.40
2018-11-05T13:08:32.918Z,32.23
2018-11-05T13:11:01.420Z,31.50
2018-11-05T13:13:29.847Z,24.23
2018-11-05T13:15:58.302Z,23.70
2018-11-05T13:18:26.845Z,36.13
2018-11-05T13:20:55.285Z,25.17
2018-11-05T13:23:29.386Z,31.20
2018-11-05T13:25:57.835Z,25.87
2018-11-05T13:28:26.352Z,27.30
2018-11-05T13:30:54.778Z,21.07
2018-11-05T13:33:23.248Z,25.13
2018-11-05T13:35:51.706Z,23.23
2018-11-05T13:38:20.567Z,29.30
2018-11-05T13:40:48.725Z,38.70
2018-11-05T13:43:17.381Z,38.23
2018-11-05T13:45:46.093Z,28.03
2018-11-05T13:48:14.613Z,30.30
2018-11-05T13:50:43.531Z,26.97
2018-11-05T13:53:12.022Z,27.10
2018-11-05T13:55:40.485Z,22.67
2018-11-05T13:58:08.973Z,30.30
2018-11-05T14:00:37.468Z,25.00
2018-11-05T14:03:06.418Z,26.50
2018-11-05T14:05:34.912Z,27.77
2018-11-05T14:08:03.439Z,25.50
2018-11-05T14:10:31.845Z,30.00
2018-11-05T14:13:00.308Z,28.40
2018-11-05T14:15:28.804Z,26.17
2018-11-05T14:17:57.329Z,30.20
2018-11-05T14:20:25.784Z,24.30
2018-11-05T14:22:57.242Z,29.10
2018-11-05T14:25:25.813Z,26.57
2018-11-05T14:27:54.438Z,22.50
2018-11-05T14:30:22.763Z,22.43
2018-11-05T14:32:51.497Z,21.83
2018-11-05T14:35:19.958Z,26.87
2018-11-05T14:37:48.424Z,24.50
2018-11-05T14:40:17.764Z,29.40
2018-11-05T14:42:46.313Z,24.13
2018-11-05T14:45:17.091Z,22.07
2018-11-05T14:47:46.318Z,24.97
2018-11-05T14:50:16.481Z,31.90
2018-11-05T14:52:44.951Z,24.50
2018-11-05T14:55:15.413Z,25.00
2018-11-05T14:57:44.776Z,23.90
2018-11-05T15:00:15.523Z,25.73
2018-11-05T15:02:44.654Z,19.83
2018-11-05T15:05:13.812Z,41.03
2018-11-05T15:07:43.308Z,24.60
2018-11-05T15:10:14.276Z,24.70
2018-11-05T15:12:43.034Z,26.77
2018-11-05T15:15:12.399Z,26.43
2018-11-05T15:17:41.686Z,24.83
2018-11-05T15:20:12.480Z,22.83
2018-11-05T15:22:40.855Z,20.17
2018-11-05T15:25:09.413Z,30.27
2018-11-05T15:27:38.629Z,25.07
2018-11-05T15:30:10.727Z,21.83
2018-11-05T15:32:39.904Z,29.93
2018-11-05T15:35:08.467Z,29.47
2018-11-05T15:37:37.463Z,45.70
2018-11-05T15:40:06.431Z,26.33
2018-11-05T15:42:35.308Z,32.80
2018-11-05T15:45:03.916Z,30.80
2018-11-05T15:47:32.429Z,25.40
2018-11-05T15:50:00.903Z,25.33
2018-11-05T15:52:29.581Z,32.63
2018-11-05T15:54:57.821Z,27.60
2018-11-05T15:57:26.297Z,28.70
2018-11-05T15:59:54.742Z,35.90
2018-11-05T16:02:23.202Z,28.67
2018-11-05T16:04:51.722Z,31.13
2018-11-05T16:07:20.154Z,29.47
2018-11-05T16:09:48.598Z,30.10
2018-11-05T16:12:17.103Z,28.63
2018-11-05T16:14:45.652Z,33.27
2018-11-05T16:17:14.114Z,30.57
2018-11-05T16:19:42.595Z,34.53
2018-11-05T16:22:11.068Z,30.40
2018-11-05T16:24:39.548Z,30.97
2018-11-05T16:27:08.011Z,32.13
2018-11-05T16:29:36.475Z,37.13
2018-11-05T16:32:05.008Z,37.30
2018-11-05T16:34:33.465Z,33.20
2018-11-05T16:37:01.922Z,40.40
2018-11-05T16:39:30.370Z,37.60
2018-11-05T16:41:58.827Z,39.30
2018-11-05T16:44:27.331Z,46.00
2018-11-05T16:46:55.787Z,39.23
2018-11-05T16:49:24.278Z,39.40
2018-11-05T16:51:52.753Z,37.10
2018-11-05T16:54:21.248Z,44.10
2018-11-05T16:56:49.690Z,47.67
2018-11-05T16:59:18.157Z,35.80
2018-11-05T17:01:47.151Z,37.03
2018-11-05T17:04:15.253Z,36.80
2018-11-05T17:06:43.692Z,30.63
2018-11-05T17:09:12.163Z,44.03
2018-11-05T17:11:40.611Z,42.63
2018-11-05T17:14:09.082Z,34.30
2018-11-05T17:16:37.549Z,32.10
2018-11-05T17:19:06.046Z,36.33
2018-11-05T17:21:34.495Z,36.93
2018-11-05T17:24:02.939Z,46.10
2018-11-05T17:26:31.678Z,33.67
2018-11-05T17:29:00.245Z,33.87
2018-11-05T17:31:28.714Z,37.73
2018-11-05T17:33:57.241Z,33.27
2018-11-05T17:36:25.727Z,46.73
2018-11-05T17:38:54.177Z,33.83
2018-11-05T17:41:22.639Z,34.93
2018-11-05T17:43:51.114Z,40.87
2018-11-05T17:46:19.651Z,40.27
2018-11-05T17:48:48.137Z,36.17
2018-11-05T17:51:16.623Z,45.57
2018-11-05T17:53:45.038Z,48.67
2018-11-05T17:56:13.522Z,36.37
2018-11-05T17:58:42.046Z,44.53
2018-11-05T18:01:10.584Z,41.77
2018-11-05T18:03:39.055Z,41.10
2018-11-05T18:06:07.579Z,36.13
2018-11-05T18:08:36.079Z,40.63
2018-11-05T18:11:04.566Z,41.20
2018-11-05T18:13:33.097Z,34.87
2018-11-05T18:16:01.582Z,35.80
2018-11-05T18:18:30.546Z,38.10
2018-11-05T18:20:59.123Z,41.23
2018-11-05T18:23:28.092Z,36.30
2018-11-05T18:25:56.629Z,38.00
2018-11-05T18:28:25.195Z,34.07
2018-11-05T18:30:53.828Z,37.03
2018-11-05T18:33:22.346Z,35.07
2018-11-05T18:35:50.854Z,36.30
2018-11-05T18:38:19.538Z,39.60
2018-11-05T18:40:48.490Z,38.10
2018-11-05T18:43:17.182Z,42.93
2018-11-05T18:45:46.007Z,33.93
2018-11-05T18:48:14.902Z,40.17
2018-11-05T18:50:44.078Z,51.93
2018-11-05T18:53:12.624Z,41.60
2018-11-05T18:55:41.427Z,39.63
2018-11-05T18:58:10.034Z,40.63
2018-11-05T19:00:43.358Z,42.50
2018-11-05T19:03:11.937Z,40.93
2018-11-05T19:05:40.378Z,40.43
2018-11-05T19:08:08.917Z,42.43
2018-11-05T19:10:37.644Z,45.80
2018-11-05T19:13:06.346Z,56.93
2018-11-05T19:15:34.973Z,50.07
2018-11-05T19:18:03.464Z,45.37
2018-11-05T19:20:31.929Z,56.10
2018-11-05T19:23:00.725Z,49.30
2018-11-05T19:25:29.161Z,39.53
2018-11-05T19:27:57.639Z,57.40
2018-11-05T19:30:27.849Z,43.33
2018-11-05T19:32:56.219Z,39.07
2018-11-05T19:35:25.130Z,37.63
2018-11-05T19:37:53.675Z,41.40
2018-11-05T19:40:22.203Z,47.10
2018-11-05T19:42:51.102Z,53.57
2018-11-05T19:45:20.997Z,47.10
2018-11-05T19:47:49.612Z,44.60
2018-11-05T19:50:19.301Z,46.93
2018-11-05T19:52:49.135Z,43.70
2018-11-05T19:55:18.276Z,57.20
2018-11-05T19:57:48.035Z,45.87
2018-11-05T20:00:24.966Z,46.93
2018-11-05T20:02:53.910Z,48.97
2018-11-05T20:05:22.679Z,44.70
2018-11-05T20:07:52.218Z,51.53
2018-11-05T20:10:20.805Z,45.63
2018-11-05T20:12:49.669Z,43.83
2018-11-05T20:15:18.665Z,44.17
2018-11-05T20:17:47.999Z,54.07
2018-11-05T20:20:17.870Z,49.67
2018-11-05T20:22:46.465Z,45.20
2018-11-05T20:25:15.649Z,55.70
2018-11-05T20:27:44.508Z,47.13
2018-11-05T20:30:15.919Z,60.47
2018-11-05T20:32:45.698Z,55.03
2018-11-05T20:35:14.354Z,55.63
2018-11-05T20:37:43.097Z,50.20
2018-11-05T20:40:14.990Z,47.00
2018-11-05T20:42:44.683Z,48.70
2018-11-05T20:45:13.860Z,48.77
2018-11-05T20:47:42.776Z,50.50
2018-11-05T20:50:12.529Z,48.70
2018-11-05T20:52:41.097Z,47.17
2018-11-05T20:55:11.183Z,46.93
2018-11-05T20:57:40.308Z,43.90
2018-11-05T21:00:10.598Z,42.67
2018-11-05T21:02:40.333Z,52.10
2018-11-05T21:05:08.866Z,42.97
2018-11-05T21:07:37.470Z,49.17
2018-11-05T21:10:08.198Z,52.40
2018-11-05T21:12:36.944Z,52.77
2018-11-05T21:15:07.110Z,48.10
2018-11-05T21:17:35.626Z,48.13
2018-11-05T21:20:04.474Z,50.47
2018-11-05T21:22:33.209Z,51.40
2018-11-05T21:25:01.973Z,51.20
2018-11-05T21:27:30.699Z,52.63
2018-11-05T21:29:59.260Z,52.90
2018-11-05T21:32:27.743Z,49.37
2018-11-05T21:34:56.294Z,53.57
2018-11-05T21:37:24.706Z,50.13
2018-11-05T21:39:53.195Z,52.83
2018-11-05T21:42:21.658Z,51.10
2018-11-05T21:44:50.181Z,51.93
2018-11-05T21:48:43.150Z,52.07
2018-11-05T21:51:11.717Z,41.80
2018-11-05T21:53:40.236Z,56.13
2018-11-05T21:56:08.733Z,42.10
2018-11-05T21:58:37.245Z,49.40
2018-11-05T22:01:06.230Z,52.43
2018-11-05T22:03:34.878Z,50.17
2018-11-05T22:06:03.768Z,60.27
2018-11-05T22:08:32.352Z,53.70
2018-11-05T22:11:01.205Z,54.63
2018-11-05T22:13:29.779Z,61.10
2018-11-05T22:15:58.399Z,57.77
2018-11-05T22:18:26.888Z,51.00
2018-11-05T22:20:55.490Z,46.57
2018-11-05T22:23:24.649Z,54.17
2018-11-05T22:25:53.133Z,46.30
2018-11-05T22:28:21.949Z,57.10
2018-11-05T22:30:50.526Z,48.20
2018-11-05T22:33:19.154Z,50.43
2018-11-05T22:35:47.697Z,71.87
2018-11-05T22:38:16.308Z,61.63
2018-11-05T22:40:44.852Z,51.40
2018-11-05T22:43:13.522Z,53.83
2018-11-05T22:45:42.043Z,49.63
2018-11-05T22:48:10.693Z,65.77
2018-11-05T22:50:39.433Z,53.00
2018-11-05T22:53:08.023Z,62.80
2018-11-05T22:55:36.562Z,52.17
2018-11-05T22:58:05.804Z,51.90
2018-11-05T23:00:39.669Z,66.47
2018-11-05T23:03:20.136Z,54.53
2018-11-05T23:05:48.743Z,62.53
2018-11-05T23:08:17.282Z,50.50
2018-11-05T23:10:45.778Z,64.67
2018-11-05T23:13:14.434Z,58.50
2018-11-05T23:15:43.310Z,56.70
2018-11-05T23:18:11.888Z,58.33
2018-11-05T23:20:40.493Z,65.30
2018-11-05T23:23:09.106Z,55.10
2018-11-05T23:25:37.701Z,57.33
2018-11-05T23:28:06.684Z,52.17
2018-11-05T23:30:35.618Z,56.23
2018-11-05T23:33:04.190Z,61.43
2018-11-05T23:35:32.987Z,61.40
2018-11-05T23:38:01.494Z,61.07
2018-11-05T23:40:29.990Z,59.83
2018-11-05T23:42:58.473Z,66.20
2018-11-05T23:45:26.974Z,57.10
2018-11-05T23:47:55.462Z,61.00
2018-11-05T23:50:24.097Z,61.07
2018-11-05T23:52:52.568Z,69.33
2018-11-05T23:55:21.393Z,62.50
2018-11-05T23:57:49.908Z,62.80
